Time;durP1;ratioP1;P1;durP2;ratioP2;P2;SDS_P1;SDS_P2;PMS_P1;PMS_P2;Temp;Humidity;BMP_temperature;BMP_pressure;BME280_temperature;BME280_humidity;BME280_pressure;Samples;Min_cycle;Max_cycle;Signal;HPM_P1;HPM_P2
2023/10/08 00:01:01;;;;;;;10.6;3.8;;;;;;;15.94;69.92676;946.5801;;;;
2023/10/08 00:03:29;;;;;;;8.9;3.3;;;;;;;15.9;69.21777;946.5792;;;;
2023/10/08 00:05:51;;;;;;;7.9;3.7;;;;;;;15.84;69.58887;946.5719;;;;
2023/10/08 00:08:16;;;;;;;9;3.7;;;;;;;15.74;69.7002;946.5616;;;;
2023/10/08 00:10:42;;;;;;;5.1;3.1;;;;;;;15.71;70.3877;946.5905;;;;
2023/10/08 00:13:09;;;;;;;8.8;3.8;;;;;;;15.72;70.37891;946.5977;;;;
2023/10/08 00:15:32;;;;;;;9.8;4;;;;;;;15.69;69.94629;946.5808;;;;
2023/10/08 00:18:01;;;;;;;8.2;3.5;;;;;;;15.69;70.33691;946.5848;;;;
2023/10/08 00:20:35;;;;;;;8.3;3.4;;;;;;;15.57;70.48145;946.6086;;;;
2023/10/08 00:22:49;;;;;;;6.9;3.7;;;;;;;15.54;71.23926;946.6133;;;;
2023/10/08 00:25:16;;;;;;;5.6;2.8;;;;;;;15.59;71.02734;946.5392;;;;
2023/10/08 00:27:40;;;;;;;6.6;3.4;;;;;;;15.62;70.96289;946.5413;;;;
2023/10/08 00:30:17;;;;;;;6.6;3.3;;;;;;;15.66;70.77344;946.4706;;;;
2023/10/08 00:32:32;;;;;;;7.9;3.6;;;;;;;15.75;70.92578;946.5432;;;;
2023/10/08 00:34:59;;;;;;;7.5;3.5;;;;;;;15.8;70.98145;946.5545;;;;
2023/10/08 00:37:26;;;;;;;7.5;2.9;;;;;;;15.71;71.11621;946.5134;;;;
2023/10/08 00:39:56;;;;;;;6.8;3.2;;;;;;;15.65;70.85254;946.563;;;;
2023/10/08 00:42:20;;;;;;;7.3;3.5;;;;;;;15.6;71.61816;946.5963;;;;
2023/10/08 00:44:51;;;;;;;8.4;3.1;;;;;;;15.48;71.26367;946.5795;;;;
2023/10/08 00:47:10;;;;;;;9.4;3.9;;;;;;;15.49;71.39258;946.6044;;;;
2023/10/08 00:49:47;;;;;;;6.8;3.4;;;;;;;15.38;72.00977;946.5675;;;;
2023/10/08 00:52:04;;;;;;;10.2;3.2;;;;;;;15.44;72.82715;946.5375;;;;
2023/10/08 00:54:28;;;;;;;8;3.4;;;;;;;15.55;72.42969;946.5187;;;;
2023/10/08 00:56:57;;;;;;;7.7;3.2;;;;;;;15.47;71.37793;946.5313;;;;
2023/10/08 00:59:15;;;;;;;9.8;3.6;;;;;;;15.54;71.94238;946.5098;;;;
2023/10/08 01:01:39;;;;;;;7.8;3.3;;;;;;;15.68;71.59668;946.5695;;;;
2023/10/08 01:04:11;;;;;;;8.3;3.5;;;;;;;15.51;70.76172;946.48;;;;
2023/10/08 01:06:30;;;;;;;7.3;3.3;;;;;;;15.55;71.96875;946.582;;;;
2023/10/08 01:08:57;;;;;;;10.1;5.7;;;;;;;15.61;71.9541;946.5048;;;;
2023/10/08 01:11:33;;;;;;;14.4;7.9;;;;;;;15.57;71.41699;946.4504;;;;
2023/10/08 01:13:49;;;;;;;12.9;7;;;;;;;15.61;71.80273;946.5513;;;;
2023/10/08 01:16:18;;;;;;;10.9;5.1;;;;;;;15.64;71.83203;946.4811;;;;
2023/10/08 01:18:49;;;;;;;7.8;3.9;;;;;;;15.7;71.21875;946.5558;;;;
2023/10/08 01:21:11;;;;;;;10.3;4.1;;;;;;;15.66;72.00977;946.4394;;;;
2023/10/08 01:23:32;;;;;;;8.5;4;;;;;;;15.64;71.84375;946.4578;;;;
2023/10/08 01:26:10;;;;;;;9.4;4;;;;;;;15.69;71.91992;946.4772;;;;
2023/10/08 01:28:28;;;;;;;8.3;3.9;;;;;;;15.65;71.63867;946.51;;;;
2023/10/08 01:30:53;;;;;;;7.2;3.8;;;;;;;15.65;71.92773;946.4842;;;;
2023/10/08 01:33:14;;;;;;;8.8;4;;;;;;;15.52;72.41309;946.5137;;;;
2023/10/08 01:35:38;;;;;;;7.3;3.2;;;;;;;15.34;73.13477;946.5505;;;;
2023/10/08 01:38:03;;;;;;;9.4;3.9;;;;;;;15.3;74.18848;946.5799;;;;
2023/10/08 01:40:30;;;;;;;9.7;3.6;;;;;;;15.4;73.96387;946.5442;;;;
2023/10/08 01:42:54;;;;;;;9.3;3.9;;;;;;;15.41;74.05664;946.5764;;;;
2023/10/08 01:45:24;;;;;;;6.7;3.6;;;;;;;15.24;74.74414;946.6696;;;;
2023/10/08 01:47:50;;;;;;;8;3.8;;;;;;;15.38;74.80371;946.5482;;;;
2023/10/08 01:50:21;;;;;;;5.5;3.3;;;;;;;15.48;74.06836;946.6051;;;;
2023/10/08 01:52:40;;;;;;;7.4;3.7;;;;;;;15.35;74.15137;946.5786;;;;
2023/10/08 01:55:03;;;;;;;8.2;3.7;;;;;;;15.41;74.24316;946.5853;;;;
2023/10/08 01:57:31;;;;;;;7;3.6;;;;;;;15.43;75.18066;946.5728;;;;
2023/10/08 01:59:54;;;;;;;8;3.7;;;;;;;15.4;75.61523;946.4215;;;;
2023/10/08 02:02:23;;;;;;;9.3;4;;;;;;;15.28;75.36426;946.4956;;;;
2023/10/08 02:04:48;;;;;;;8.7;3.5;;;;;;;15.18;76.16602;946.5936;;;;
2023/10/08 02:07:14;;;;;;;8.5;3.5;;;;;;;15.22;76.08008;946.5427;;;;
2023/10/08 02:09:39;;;;;;;9.1;3.5;;;;;;;15.05;76.05078;946.5045;;;;
2023/10/08 02:12:04;;;;;;;5.1;2.6;;;;;;;15.11;76.03809;946.5338;;;;
2023/10/08 02:14:31;;;;;;;8;3.6;;;;;;;15.13;75.77734;946.5452;;;;
2023/10/08 02:17:01;;;;;;;10.5;3.6;;;;;;;15.04;75.95605;946.5005;;;;
2023/10/08 02:19:26;;;;;;;8.5;3;;;;;;;15.17;75.82813;946.551;;;;
2023/10/08 02:21:48;;;;;;;9.3;3.6;;;;;;;15.24;75.14844;946.517;;;;
2023/10/08 02:24:17;;;;;;;10.2;3.4;;;;;;;15.36;74.99512;946.504;;;;
2023/10/08 02:26:42;;;;;;;39.1;20.7;;;;;;;15.31;75.2998;946.4444;;;;
2023/10/08 02:29:10;;;;;;;46.2;22.7;;;;;;;15.27;75.55664;946.4386;;;;
2023/10/08 02:31:34;;;;;;;22.1;10.1;;;;;;;15.28;75.37598;946.4363;;;;
2023/10/08 02:34:00;;;;;;;13.9;4.7;;;;;;;15.25;75.15039;946.4337;;;;
2023/10/08 02:36:24;;;;;;;9;4;;;;;;;14.96;76.15039;946.3619;;;;
2023/10/08 02:38:50;;;;;;;14.3;5;;;;;;;15.09;76.43848;946.3267;;;;
2023/10/08 02:41:15;;;;;;;9.1;4;;;;;;;15.15;76.53125;946.4601;;;;
2023/10/08 02:43:42;;;;;;;9.9;4.4;;;;;;;15.27;76.41309;946.445;;;;
2023/10/08 02:46:14;;;;;;;9.4;3.8;;;;;;;15.32;75.46289;946.4589;;;;
2023/10/08 02:48:34;;;;;;;10.9;3.8;;;;;;;15.26;75.23242;946.4249;;;;
2023/10/08 02:51:13;;;;;;;10;3.9;;;;;;;15.25;75.03418;946.4128;;;;
2023/10/08 02:53:33;;;;;;;7.5;3.5;;;;;;;15.09;74.44336;946.317;;;;
2023/10/08 02:56:00;;;;;;;8;3.6;;;;;;;15.13;74.7832;946.3125;;;;
2023/10/08 02:58:27;;;;;;;10.1;3.6;;;;;;;15.15;74.89063;946.3495;;;;
2023/10/08 03:00:53;;;;;;;11;3.7;;;;;;;15.03;75.74707;946.3176;;;;
2023/10/08 03:03:19;;;;;;;8.9;3.6;;;;;;;15.07;75.36133;946.3033;;;;
2023/10/08 03:05:46;;;;;;;8.8;3.6;;;;;;;15.06;76.01855;946.252;;;;
2023/10/08 03:08:22;;;;;;;14.8;4.1;;;;;;;15.08;76.18164;946.2385;;;;
2023/10/08 03:10:44;;;;;;;8.6;3.6;;;;;;;15.13;75.46289;946.1866;;;;
2023/10/08 03:13:12;;;;;;;9.2;3.2;;;;;;;15.24;75.88672;946.2611;;;;
2023/10/08 03:15:46;;;;;;;9.4;3.6;;;;;;;15.23;75.42383;946.2419;;;;
2023/10/08 03:18:09;;;;;;;8.6;3.7;;;;;;;14.96;76.30176;946.2047;;;;
2023/10/08 03:20:38;;;;;;;9.2;3.2;;;;;;;15.02;76.05762;946.1219;;;;
2023/10/08 03:22:54;;;;;;;6.9;3.1;;;;;;;15.18;75.62207;946.1683;;;;
2023/10/08 03:25:18;;;;;;;8.4;4.1;;;;;;;15.19;75.50977;946.1868;;;;
2023/10/08 03:27:48;;;;;;;8.9;3.5;;;;;;;15.18;75.4043;946.1708;;;;
2023/10/08 03:30:14;;;;;;;8.6;3.7;;;;;;;15.13;75.22363;946.12;;;;
2023/10/08 03:32:38;;;;;;;9;4.1;;;;;;;15.12;74.48242;946.1351;;;;
2023/10/08 03:35:10;;;;;;;9.1;3.2;;;;;;;15;75.29102;946.0508;;;;
2023/10/08 03:37:40;;;;;;;7.7;3.1;;;;;;;14.91;73.99707;946.0231;;;;
2023/10/08 03:40:07;;;;;;;10.5;3.4;;;;;;;14.95;75.37402;946.0674;;;;
2023/10/08 03:42:23;;;;;;;9.1;3.7;;;;;;;15;74.90039;946.1006;;;;
2023/10/08 03:44:50;;;;;;;13.9;3.4;;;;;;;14.99;74.4375;946.0059;;;;
2023/10/08 03:47:12;;;;;;;10.8;3.2;;;;;;;15;74.73926;946.0629;;;;
2023/10/08 03:49:44;;;;;;;10.7;3.7;;;;;;;15.1;74.31641;946.0477;;;;
2023/10/08 03:52:02;;;;;;;11.2;3.5;;;;;;;14.96;75.39063;946.0491;;;;
2023/10/08 03:54:34;;;;;;;10.6;3.7;;;;;;;14.97;74.84766;946.0178;;;;
2023/10/08 03:56:54;;;;;;;9.7;3.7;;;;;;;15.02;75.04004;946.0071;;;;
2023/10/08 03:59:30;;;;;;;9.9;3.3;;;;;;;15.06;75.15332;945.9672;;;;
2023/10/08 04:02:40;;;;;;;11.6;3.5;;;;;;;15.22;74.90332;945.8759;;;;
2023/10/08 04:04:58;;;;;;;9.7;3.2;;;;;;;15.25;75.17285;945.8472;;;;
2023/10/08 04:08:05;;;;;;;9.7;3.5;;;;;;;15.27;75.09668;945.8873;;;;
2023/10/08 04:09:47;;;;;;;8.9;3.3;;;;;;;15.31;74.91992;945.8041;;;;
2023/10/08 04:12:18;;;;;;;9.6;3.2;;;;;;;15.21;75.29395;945.7969;;;;
2023/10/08 04:14:38;;;;;;;9.6;3.3;;;;;;;15.25;75.41504;945.8063;;;;
2023/10/08 04:17:04;;;;;;;10.3;3.2;;;;;;;15.29;75.57324;945.8063;;;;
2023/10/08 04:19:29;;;;;;;9.5;3.2;;;;;;;15.36;75.81641;945.7761;;;;
2023/10/08 04:21:55;;;;;;;9.1;3.1;;;;;;;15.31;75.4707;945.7888;;;;
2023/10/08 04:24:19;;;;;;;9.7;3.6;;;;;;;15.35;75.05176;945.7183;;;;
2023/10/08 04:26:45;;;;;;;6.4;2.9;;;;;;;15.24;75.51758;945.6978;;;;
2023/10/08 04:29:16;;;;;;;10.9;3.7;;;;;;;15.2;75.63672;945.7303;;;;
2023/10/08 04:31:38;;;;;;;10.1;3.9;;;;;;;15.23;75.86133;945.7467;;;;
2023/10/08 04:34:01;;;;;;;7.5;3.6;;;;;;;15.24;75.5293;945.7523;;;;
2023/10/08 04:36:26;;;;;;;9.5;3.4;;;;;;;15.2;75.7998;945.7078;;;;
2023/10/08 04:38:54;;;;;;;10.1;3.5;;;;;;;15.16;76.46289;945.6764;;;;
2023/10/08 04:41:19;;;;;;;9.6;3.6;;;;;;;15.21;75.59375;945.6541;;;;
2023/10/08 04:43:42;;;;;;;10.1;3.5;;;;;;;15.2;75.85742;945.6011;;;;
2023/10/08 04:46:19;;;;;;;9.6;3.1;;;;;;;15.11;75.99219;945.5551;;;;
2023/10/08 04:48:36;;;;;;;11.6;3.7;;;;;;;15.08;76.40234;945.5878;;;;
2023/10/08 04:51:02;;;;;;;10.4;3.1;;;;;;;15.2;76.45605;945.6525;;;;
2023/10/08 04:53:31;;;;;;;11;3.5;;;;;;;15.22;76.54199;945.6505;;;;
2023/10/08 04:55:54;;;;;;;7.8;3.4;;;;;;;15.21;76.40137;945.6557;;;;
2023/10/08 04:58:21;;;;;;;11.4;3.9;;;;;;;15.22;76.24219;945.5983;;;;
2023/10/08 05:00:53;;;;;;;11.4;3.6;;;;;;;15.16;76.2666;945.5761;;;;
2023/10/08 05:03:13;;;;;;;8.3;3.7;;;;;;;15.14;76.66602;945.6378;;;;
2023/10/08 05:05:51;;;;;;;9;3.8;;;;;;;15.12;77.02051;945.5736;;;;
2023/10/08 05:08:17;;;;;;;10.8;3.8;;;;;;;15.14;77.08301;945.6234;;;;
2023/10/08 05:11:00;;;;;;;11.2;3.7;;;;;;;15.17;77.0752;945.5497;;;;
2023/10/08 05:13:00;;;;;;;8.9;3.6;;;;;;;15.19;77.17188;945.5545;;;;
2023/10/08 05:15:33;;;;;;;8.5;3.5;;;;;;;15.23;77.31543;945.5413;;;;
2023/10/08 05:17:46;;;;;;;15.2;4.6;;;;;;;15.25;77.32031;945.5775;;;;
2023/10/08 05:20:19;;;;;;;10.5;3.7;;;;;;;15.18;78.11621;945.577;;;;
2023/10/08 05:22:55;;;;;;;11.6;3.4;;;;;;;15.13;78.88965;945.5062;;;;
2023/10/08 05:25:08;;;;;;;11;3.6;;;;;;;15.15;77.84473;945.5095;;;;
2023/10/08 05:27:56;;;;;;;8.5;3.8;;;;;;;15.05;78.56738;945.5397;;;;
2023/10/08 05:30:15;;;;;;;6.4;3.4;;;;;;;14.97;78.9541;945.5237;;;;
2023/10/08 05:32:38;;;;;;;9.9;4.1;;;;;;;15.02;78.06445;945.5428;;;;
2023/10/08 05:34:42;;;;;;;9.2;3.4;;;;;;;15.08;78.54883;945.4924;;;;
2023/10/08 05:37:52;;;;;;;10.8;3.1;;;;;;;15.13;77.95508;945.5255;;;;
2023/10/08 05:39:40;;;;;;;9.1;4;;;;;;;15.1;78.52734;945.5808;;;;
2023/10/08 05:42:06;;;;;;;8.6;3.8;;;;;;;15.08;78.70898;945.5694;;;;
2023/10/08 05:44:38;;;;;;;17.5;4.1;;;;;;;15.21;78.65234;945.5956;;;;
2023/10/08 05:47:06;;;;;;;10.4;3.7;;;;;;;15.3;78.63184;945.54;;;;
2023/10/08 05:49:38;;;;;;;10.1;3.7;;;;;;;15.44;78.50977;945.6016;;;;
2023/10/08 05:51:59;;;;;;;9.4;3.7;;;;;;;15.43;77.49023;945.5447;;;;
2023/10/08 05:54:10;;;;;;;9.2;3.3;;;;;;;15.4;77.75098;945.6847;;;;
2023/10/08 05:56:42;;;;;;;10.3;3.1;;;;;;;15.45;77.64355;945.6763;;;;
2023/10/08 05:59:03;;;;;;;7.9;3.3;;;;;;;15.52;77.17188;945.5986;;;;
2023/10/08 06:01:39;;;;;;;10.5;3.5;;;;;;;15.63;76.70508;945.6379;;;;
2023/10/08 06:03:59;;;;;;;8.1;3.2;;;;;;;15.61;76.19531;945.6465;;;;
2023/10/08 06:06:36;;;;;;;12.8;3.7;;;;;;;15.63;76.7168;945.6741;;;;
2023/10/08 06:08:49;;;;;;;10.6;3.7;;;;;;;15.6;77.12793;945.6761;;;;
2023/10/08 06:11:00;;;;;;;13.3;3.8;;;;;;;15.61;77.24512;945.6505;;;;
2023/10/08 06:13:29;;;;;;;8.2;3.1;;;;;;;15.72;77.33398;945.5844;;;;
2023/10/08 06:16:05;;;;;;;8.7;3.5;;;;;;;15.72;77.10254;945.6614;;;;
2023/10/08 06:18:14;;;;;;;8.6;3.9;;;;;;;15.66;77.33398;945.6661;;;;
2023/10/08 06:20:40;;;;;;;13.3;3.5;;;;;;;15.66;77.10254;945.7095;;;;
2023/10/08 06:23:07;;;;;;;8.1;3.2;;;;;;;15.68;77.06152;945.74;;;;
2023/10/08 06:25:30;;;;;;;12.5;3.7;;;;;;;15.67;76.97949;945.7697;;;;
2023/10/08 06:27:57;;;;;;;10.3;3.6;;;;;;;15.65;77.1377;945.813;;;;
2023/10/08 06:30:19;;;;;;;10.5;4;;;;;;;15.7;77.23926;945.7947;;;;
2023/10/08 06:32:44;;;;;;;10;3.7;;;;;;;15.72;77.10449;945.8485;;;;
2023/10/08 06:35:17;;;;;;;10.6;3.8;;;;;;;15.69;77.55957;945.8308;;;;
2023/10/08 06:37:34;;;;;;;14.1;4.1;;;;;;;15.71;77.38965;945.8493;;;;
2023/10/08 06:40:01;;;;;;;10.2;3.7;;;;;;;15.58;78.45313;945.8645;;;;
2023/10/08 06:42:27;;;;;;;10.3;3.8;;;;;;;15.65;78.74316;945.8628;;;;
2023/10/08 06:44:57;;;;;;;9.9;4.6;;;;;;;15.85;77.79688;945.8996;;;;
2023/10/08 06:47:18;;;;;;;10.1;4.1;;;;;;;16.02;78.48633;945.9515;;;;
2023/10/08 06:49:46;;;;;;;11.4;4;;;;;;;16.19;78.71191;945.864;;;;
2023/10/08 06:52:13;;;;;;;10.9;3.9;;;;;;;16.27;77.57129;945.9503;;;;
2023/10/08 06:54:36;;;;;;;11.3;3.7;;;;;;;16.33;76.85156;945.9366;;;;
2023/10/08 06:57:04;;;;;;;15.6;4.6;;;;;;;16.29;76.70508;946.0154;;;;
2023/10/08 06:59:31;;;;;;;13.2;4.5;;;;;;;16.26;76.38965;945.9816;;;;
2023/10/08 07:01:53;;;;;;;11.3;3.4;;;;;;;16.26;76.75977;945.9849;;;;
2023/10/08 07:04:21;;;;;;;10.8;3.8;;;;;;;16.46;77.50098;946.0959;;;;
2023/10/08 07:06:46;;;;;;;10.3;4.2;;;;;;;16.58;76.94141;946.0556;;;;
2023/10/08 07:09:22;;;;;;;14.7;4.7;;;;;;;16.68;76.18457;946.1358;;;;
2023/10/08 07:11:44;;;;;;;13.6;5.8;;;;;;;16.76;75.65234;946.0938;;;;
2023/10/08 07:14:04;;;;;;;14.2;6.9;;;;;;;16.71;75.7832;946.1542;;;;
2023/10/08 07:16:30;;;;;;;15.6;7.1;;;;;;;16.89;75.58301;946.1195;;;;
2023/10/08 07:19:01;;;;;;;16.4;7.1;;;;;;;16.89;74.40137;946.159;;;;
2023/10/08 07:21:28;;;;;;;13.1;5.9;;;;;;;16.91;73.89355;946.1775;;;;
2023/10/08 07:23:59;;;;;;;17.1;6.2;;;;;;;16.88;75.33691;946.1791;;;;
2023/10/08 07:26:12;;;;;;;15.3;4.9;;;;;;;17.03;75.0498;946.1484;;;;
2023/10/08 07:28:39;;;;;;;13.7;5.8;;;;;;;17.22;74.83887;946.3056;;;;
2023/10/08 07:31:03;;;;;;;16.1;6.6;;;;;;;17.38;76.81738;946.2426;;;;
2023/10/08 07:33:36;;;;;;;16.6;6;;;;;;;17.57;75.61816;946.3137;;;;
2023/10/08 07:36:04;;;;;;;13.8;5.2;;;;;;;17.71;74.01855;946.3378;;;;
2023/10/08 07:38:21;;;;;;;18.2;5.8;;;;;;;17.9;73.42188;946.3694;;;;
2023/10/08 07:40:44;;;;;;;18.7;6;;;;;;;17.9;73.24902;946.3709;;;;
2023/10/08 07:43:12;;;;;;;15.9;5.5;;;;;;;17.99;73.42676;946.4155;;;;
2023/10/08 07:45:37;;;;;;;16.3;5.9;;;;;;;18.16;74.88281;946.4607;;;;
2023/10/08 07:48:06;;;;;;;14.4;5.5;;;;;;;18.34;74.77441;946.3848;;;;
2023/10/08 07:50:30;;;;;;;13;5.5;;;;;;;18.42;74.85742;946.3656;;;;
2023/10/08 07:52:55;;;;;;;13.6;6.2;;;;;;;18.56;74.90527;946.4503;;;;
2023/10/08 07:55:19;;;;;;;11.1;5.6;;;;;;;18.73;75.05078;946.4203;;;;
2023/10/08 07:57:44;;;;;;;9.5;4;;;;;;;18.94;75.0752;946.4777;;;;
2023/10/08 08:00:22;;;;;;;9.8;4.2;;;;;;;19.12;75.19922;946.4366;;;;
2023/10/08 08:02:34;;;;;;;15.4;7.4;;;;;;;19.31;72.87793;946.3985;;;;
2023/10/08 08:05:03;;;;;;;13.8;5.9;;;;;;;19.43;71.81348;946.4483;;;;
2023/10/08 08:07:25;;;;;;;17.5;6.1;;;;;;;19.48;71.8457;946.5535;;;;
2023/10/08 08:09:52;;;;;;;15.1;4.4;;;;;;;19.53;71.86523;946.5812;;;;
2023/10/08 08:12:16;;;;;;;15.1;4.6;;;;;;;19.54;70.22266;946.5006;;;;
2023/10/08 08:14:43;;;;;;;10.4;3.7;;;;;;;19.55;69.73438;946.6209;;;;
2023/10/08 08:17:15;;;;;;;8.8;3.5;;;;;;;19.53;70.36133;946.5917;;;;
2023/10/08 08:19:33;;;;;;;12.6;4;;;;;;;19.41;70.91309;946.5314;;;;
2023/10/08 08:22:02;;;;;;;17.8;6.9;;;;;;;19.24;72.34375;946.6052;;;;
2023/10/08 08:24:35;;;;;;;8.6;3.8;;;;;;;19.06;73.09375;946.6786;;;;
2023/10/08 08:27:01;;;;;;;9.2;3.5;;;;;;;19.09;71.94531;946.6564;;;;
2023/10/08 08:29:17;;;;;;;8.5;3.4;;;;;;;19.15;70.34766;946.7424;;;;
2023/10/08 08:31:46;;;;;;;26.6;9.8;;;;;;;19.23;70.47559;946.7725;;;;
2023/10/08 08:34:09;;;;;;;26.6;9.6;;;;;;;19.18;70.30664;946.7905;;;;
2023/10/08 08:36:32;;;;;;;16.7;5.3;;;;;;;19.17;70.81641;946.8205;;;;
2023/10/08 08:38:57;;;;;;;11.9;3.5;;;;;;;19.22;70.20801;946.765;;;;
2023/10/08 08:41:23;;;;;;;12.4;3.7;;;;;;;19.24;70.45605;946.7465;;;;
2023/10/08 08:43:48;;;;;;;14;3.8;;;;;;;19.33;71.94922;946.7148;;;;
2023/10/08 08:46:14;;;;;;;16.1;4.8;;;;;;;19.24;71.38672;946.757;;;;
2023/10/08 08:48:38;;;;;;;12.3;4.4;;;;;;;19.3;72.80469;946.7274;;;;
2023/10/08 08:51:06;;;;;;;14;3.9;;;;;;;19.19;72.99805;946.7079;;;;
2023/10/08 08:53:29;;;;;;;13.4;3.7;;;;;;;19.2;74.34961;946.6142;;;;
2023/10/08 08:55:57;;;;;;;12.1;3.5;;;;;;;19.41;72.55469;946.6648;;;;
2023/10/08 08:58:25;;;;;;;14;3.9;;;;;;;19.59;71.75879;946.6656;;;;
2023/10/08 09:00:52;;;;;;;17.2;4.1;;;;;;;19.54;69.53516;946.6614;;;;
2023/10/08 09:03:19;;;;;;;15.3;4;;;;;;;19.48;70.5293;946.6674;;;;
2023/10/08 09:05:50;;;;;;;10.3;3.6;;;;;;;19.81;71.16406;946.6367;;;;
2023/10/08 09:08:11;;;;;;;13.5;3.7;;;;;;;19.76;69.2207;946.6501;;;;
2023/10/08 09:10:50;;;;;;;16.3;4.7;;;;;;;19.52;69.14941;946.5111;;;;
2023/10/08 09:13:03;;;;;;;12.8;4.1;;;;;;;19.56;69.91211;946.5933;;;;
2023/10/08 09:15:29;;;;;;;10.4;4.4;;;;;;;19.69;69.61816;946.5815;;;;
2023/10/08 09:17:54;;;;;;;15.5;4.1;;;;;;;19.62;68.68555;946.5499;;;;
2023/10/08 09:20:23;;;;;;;15;4.1;;;;;;;19.67;68.41406;946.5034;;;;
2023/10/08 09:22:49;;;;;;;13.3;3.9;;;;;;;19.59;67.59668;946.5753;;;;
2023/10/08 09:25:14;;;;;;;18;4.3;;;;;;;19.82;67.79395;946.5347;;;;
2023/10/08 09:27:46;;;;;;;14.5;4.1;;;;;;;20.13;66.83984;946.5778;;;;
2023/10/08 09:30:07;;;;;;;14.4;3.9;;;;;;;20.53;67.17969;946.5348;;;;
2023/10/08 09:32:29;;;;;;;12.7;4.6;;;;;;;20.85;66.86621;946.5577;;;;
2023/10/08 09:34:54;;;;;;;11.9;4.4;;;;;;;21.09;64.93848;946.6096;;;;
2023/10/08 09:37:21;;;;;;;16;5;;;;;;;21.15;62.8877;946.573;;;;
2023/10/08 09:39:45;;;;;;;13.6;4.9;;;;;;;21.25;63.75781;946.5839;;;;
2023/10/08 09:42:11;;;;;;;11.3;4.3;;;;;;;21.54;63.82129;946.5689;;;;
2023/10/08 09:44:36;;;;;;;11.5;5;;;;;;;21.76;60.06836;946.5957;;;;
2023/10/08 09:47:04;;;;;;;11.4;4.4;;;;;;;21.86;59.39063;946.5153;;;;
2023/10/08 09:49:29;;;;;;;13.1;4.8;;;;;;;22.04;61.43262;946.5051;;;;
2023/10/08 09:51:54;;;;;;;10;4.1;;;;;;;22.02;59.6123;946.5094;;;;
2023/10/08 09:54:20;;;;;;;15.1;4.1;;;;;;;22.2;60.46875;946.5636;;;;
2023/10/08 09:56:45;;;;;;;12.8;3.7;;;;;;;22.5;58.24512;946.6256;;;;
2023/10/08 09:59:11;;;;;;;14.1;4.1;;;;;;;22.55;54.56738;946.5253;;;;
2023/10/08 10:01:37;;;;;;;11.3;3.6;;;;;;;22.9;53.5166;946.5129;;;;
2023/10/08 10:04:01;;;;;;;13;3.4;;;;;;;23.3;54.51758;946.5892;;;;
2023/10/08 10:06:29;;;;;;;11.8;3.7;;;;;;;23.63;49.62988;946.5217;;;;
2023/10/08 10:08:54;;;;;;;12.4;3.4;;;;;;;23.67;49.92773;946.5558;;;;
2023/10/08 10:11:21;;;;;;;11.3;3.1;;;;;;;23.78;50.05762;946.5469;;;;
2023/10/08 10:13:47;;;;;;;14.6;3.6;;;;;;;23.58;50.63477;946.4938;;;;
2023/10/08 10:16:13;;;;;;;11.6;3.3;;;;;;;23.49;53.10645;946.5527;;;;
2023/10/08 10:18:36;;;;;;;12.4;3.3;;;;;;;23.74;52.06445;946.5352;;;;
2023/10/08 10:21:02;;;;;;;12.8;3.2;;;;;;;23.75;52.45508;946.5486;;;;
2023/10/08 10:23:27;;;;;;;11.2;2.9;;;;;;;23.8;52.16602;946.605;;;;
2023/10/08 10:25:54;;;;;;;11.8;3;;;;;;;23.79;52.80078;946.6671;;;;
2023/10/08 10:28:21;;;;;;;13.7;3.3;;;;;;;23.57;53.33984;946.5786;;;;
2023/10/08 10:30:47;;;;;;;13.5;3.7;;;;;;;23.64;53.20605;946.5265;;;;
2023/10/08 10:33:12;;;;;;;12.8;3.1;;;;;;;23.77;54.63281;946.5375;;;;
2023/10/08 10:35:41;;;;;;;11.8;3.4;;;;;;;23.83;55.52344;946.4587;;;;
2023/10/08 10:38:06;;;;;;;11.1;3.4;;;;;;;23.45;55.89941;946.5311;;;;
2023/10/08 10:40:39;;;;;;;10.7;2.9;;;;;;;23.64;53.52344;946.5697;;;;
2023/10/08 10:42:55;;;;;;;11.8;3.5;;;;;;;23.87;56.72852;946.5862;;;;
2023/10/08 10:45:40;;;;;;;10.8;3.5;;;;;;;24.25;50.8418;946.5843;;;;
2023/10/08 10:47:46;;;;;;;16.7;4;;;;;;;24.59;49.40625;946.5345;;;;
2023/10/08 10:50:31;;;;;;;15.7;4;;;;;;;25.06;50.01172;946.5229;;;;
2023/10/08 10:52:44;;;;;;;15.7;3.7;;;;;;;24.7;50.70313;946.4623;;;;
2023/10/08 10:55:18;;;;;;;12.8;3.5;;;;;;;24.42;51.18945;946.5064;;;;
2023/10/08 10:57:34;;;;;;;13;4;;;;;;;24.06;50.19531;946.4172;;;;
2023/10/08 10:59:55;;;;;;;13;3.3;;;;;;;24.23;48.3291;946.4261;;;;
2023/10/08 11:02:30;;;;;;;14;3.3;;;;;;;24.56;48.86035;946.3956;;;;
2023/10/08 11:04:47;;;;;;;15.1;3.6;;;;;;;24.96;47.05176;946.4645;;;;
2023/10/08 11:07:09;;;;;;;14.9;3.1;;;;;;;25;46.06543;946.4064;;;;
2023/10/08 11:09:38;;;;;;;15.7;3.2;;;;;;;24.48;50.29004;946.3898;;;;
2023/10/08 11:12:01;;;;;;;11;3.9;;;;;;;24.32;49.69336;946.4207;;;;
2023/10/08 11:14:25;;;;;;;10.5;3.5;;;;;;;24.33;53.06543;946.4455;;;;
2023/10/08 11:16:51;;;;;;;14.3;3.3;;;;;;;24.48;44.86914;946.3312;;;;
2023/10/08 11:19:19;;;;;;;14.6;3.3;;;;;;;24.68;46.13867;946.4236;;;;
2023/10/08 11:21:43;;;;;;;17;3.4;;;;;;;24.92;43.89746;946.5458;;;;
2023/10/08 11:24:12;;;;;;;13.7;3.5;;;;;;;24.38;47.47461;946.5563;;;;
2023/10/08 11:26:35;;;;;;;12.6;3.6;;;;;;;24.55;48.24609;946.5009;;;;
2023/10/08 11:29:00;;;;;;;10.7;3.4;;;;;;;24.9;47.57617;946.5333;;;;
2023/10/08 11:31:24;;;;;;;14.7;3.5;;;;;;;24.88;47.8457;946.5966;;;;
2023/10/08 11:33:55;;;;;;;9.4;2.7;;;;;;;24.82;47.37891;946.6269;;;;
2023/10/08 11:36:20;;;;;;;22;4.4;;;;;;;24.55;48.71777;946.6093;;;;
2023/10/08 11:38:42;;;;;;;14;3.4;;;;;;;24.4;48.19531;946.6484;;;;
2023/10/08 11:41:13;;;;;;;9.5;3.3;;;;;;;23.93;50.44043;946.7064;;;;
2023/10/08 11:43:35;;;;;;;11.9;3.6;;;;;;;23.39;51.71875;946.7308;;;;
2023/10/08 11:45:59;;;;;;;14.7;3.2;;;;;;;23.3;51.02539;946.7267;;;;
2023/10/08 11:48:28;;;;;;;13.6;3.3;;;;;;;23.18;51.56543;946.6619;;;;
2023/10/08 11:50:50;;;;;;;10.6;3.1;;;;;;;23.3;51.48535;946.6965;;;;
2023/10/08 11:53:14;;;;;;;13.1;3.9;;;;;;;23.28;52.56348;946.6647;;;;
2023/10/08 11:55:42;;;;;;;14.2;3.3;;;;;;;23.23;52.25293;946.5985;;;;
2023/10/08 11:58:11;;;;;;;13.6;3.1;;;;;;;23.33;52.69824;946.6016;;;;
2023/10/08 12:00:36;;;;;;;14.7;3.4;;;;;;;23.11;52.69727;946.6102;;;;
2023/10/08 12:03:01;;;;;;;9.5;2.9;;;;;;;22.82;53.94141;946.5999;;;;
2023/10/08 12:05:28;;;;;;;14;3.4;;;;;;;22.85;52.25488;946.5555;;;;
2023/10/08 12:07:52;;;;;;;12.9;3.8;;;;;;;22.76;53.52441;946.5945;;;;
2023/10/08 12:10:22;;;;;;;12.5;3.2;;;;;;;22.67;54.47461;946.5927;;;;
2023/10/08 12:12:45;;;;;;;14.3;3.4;;;;;;;22.55;55.42383;946.6536;;;;
2023/10/08 12:15:19;;;;;;;13.5;3.1;;;;;;;22.29;55.59082;946.6422;;;;
2023/10/08 12:17:39;;;;;;;12.8;3.5;;;;;;;22.37;55.44824;946.6234;;;;
2023/10/08 12:20:12;;;;;;;16.6;3.8;;;;;;;22.53;53.82422;946.5787;;;;
2023/10/08 12:22:28;;;;;;;14.5;3.1;;;;;;;22.55;54.20313;946.5837;;;;
2023/10/08 12:24:53;;;;;;;13.4;4.1;;;;;;;22.54;55.73926;946.5296;;;;
2023/10/08 12:27:19;;;;;;;14.1;3.5;;;;;;;22.38;57.25586;946.5898;;;;
2023/10/08 12:29:46;;;;;;;11.3;3.7;;;;;;;22.18;58.56543;946.5536;;;;
2023/10/08 12:32:17;;;;;;;13.3;3.6;;;;;;;22.15;59.51172;946.6539;;;;
2023/10/08 12:34:35;;;;;;;13.3;3.5;;;;;;;22.2;58.51074;946.6636;;;;
2023/10/08 12:37:00;;;;;;;10.1;3;;;;;;;22.1;60.02148;946.6956;;;;
2023/10/08 12:39:30;;;;;;;13.7;3.8;;;;;;;21.94;56.88281;946.6936;;;;
2023/10/08 12:41:53;;;;;;;14.3;3.9;;;;;;;21.98;57.42676;946.6797;;;;
2023/10/08 12:44:16;;;;;;;12.6;3.6;;;;;;;22.03;59.01563;946.7682;;;;
2023/10/08 12:46:43;;;;;;;16.9;4.1;;;;;;;21.99;58.92871;946.7332;;;;
2023/10/08 12:49:07;;;;;;;15.7;4.1;;;;;;;21.97;60.16895;946.6613;;;;
2023/10/08 12:51:34;;;;;;;13.4;3.7;;;;;;;22;59.62109;946.8236;;;;
2023/10/08 12:54:03;;;;;;;17.5;4.5;;;;;;;22.09;58.23926;946.7453;;;;
2023/10/08 12:56:31;;;;;;;12.7;3.8;;;;;;;21.91;58.78906;946.7031;;;;
2023/10/08 12:58:48;;;;;;;10.1;3.1;;;;;;;21.95;59.6377;946.5994;;;;
2023/10/08 13:01:13;;;;;;;14.8;3.9;;;;;;;21.82;60.14746;946.5963;;;;
2023/10/08 13:03:41;;;;;;;15.6;4;;;;;;;21.93;61.71094;946.5283;;;;
2023/10/08 13:06:05;;;;;;;13.7;3.4;;;;;;;21.63;62.41602;946.4785;;;;
2023/10/08 13:08:28;;;;;;;10.7;3.2;;;;;;;21.52;62.95117;946.4802;;;;
2023/10/08 13:11:00;;;;;;;13.8;3.2;;;;;;;21.55;63.79883;946.4472;;;;
2023/10/08 13:13:25;;;;;;;12.6;3.6;;;;;;;21.63;64.49023;946.4564;;;;
2023/10/08 13:15:44;;;;;;;12.1;3.9;;;;;;;21.78;64.25488;946.3544;;;;
2023/10/08 13:18:09;;;;;;;12.1;3.6;;;;;;;21.86;64.20801;946.4;;;;
2023/10/08 13:20:35;;;;;;;13.7;3.2;;;;;;;21.87;66.21094;946.3463;;;;
2023/10/08 13:23:00;;;;;;;14.7;4.2;;;;;;;21.81;65.26465;946.3003;;;;
2023/10/08 13:25:27;;;;;;;13.3;3.7;;;;;;;21.79;67.02051;946.2561;;;;
2023/10/08 13:27:52;;;;;;;14.7;3.5;;;;;;;21.74;66.70801;946.2515;;;;
2023/10/08 13:30:20;;;;;;;10.6;3.4;;;;;;;21.8;65.74414;946.2941;;;;
2023/10/08 13:32:45;;;;;;;11.8;3.5;;;;;;;21.76;65.83301;946.384;;;;
2023/10/08 13:35:12;;;;;;;13.6;3.4;;;;;;;21.84;65.82031;946.3438;;;;
2023/10/08 13:37:37;;;;;;;14.4;3.6;;;;;;;21.91;65.5498;946.3244;;;;
2023/10/08 13:40:03;;;;;;;10.7;3.6;;;;;;;21.87;70.39453;946.3358;;;;
2023/10/08 13:42:29;;;;;;;9.2;3.4;;;;;;;22.01;67.49902;946.3588;;;;
2023/10/08 13:44:54;;;;;;;10.6;3.2;;;;;;;22.06;69.42773;946.3647;;;;
2023/10/08 13:47:22;;;;;;;12.4;3.8;;;;;;;21.98;71.3252;946.2791;;;;
2023/10/08 13:49:44;;;;;;;13.3;3.9;;;;;;;21.99;71.91406;946.2755;;;;
2023/10/08 13:52:11;;;;;;;16.1;4.1;;;;;;;22.02;69.32813;946.1541;;;;
2023/10/08 13:54:41;;;;;;;12.9;4.1;;;;;;;22.01;70.2998;946.2241;;;;
2023/10/08 13:57:01;;;;;;;14.8;3.3;;;;;;;22.09;68.63477;946.1978;;;;
2023/10/08 13:59:31;;;;;;;13.5;3.7;;;;;;;21.8;68.2627;946.1254;;;;
2023/10/08 14:01:54;;;;;;;11.7;4;;;;;;;21.65;68.55762;946.1755;;;;
2023/10/08 14:04:19;;;;;;;18.5;4.1;;;;;;;21.73;67.56055;946.1853;;;;
2023/10/08 14:06:47;;;;;;;13.6;3.9;;;;;;;21.86;66.80762;946.177;;;;